TimeEDT,TemperatureF,Dew PointF,Humidity,Sea Level PressureIn,VisibilityMPH,Wind Direction,Wind SpeedMPH,Gust SpeedMPH,PrecipitationIn,Events,Conditions,WindDirDegrees,DateUTC
12:54 AM,42.1,34.0,73,29.81,10.0,WSW,13.8,20.7,N/A,,Overcast,250,2013-03-12 04:54:00
1:34 AM,41.0,33.8,76,29.81,10.0,West,11.5,-,N/A,,Mostly Cloudy,260,2013-03-12 05:34:00
1:54 AM,39.9,33.1,77,29.83,10.0,West,9.2,-,N/A,,Mostly Cloudy,260,2013-03-12 05:54:00
2:27 AM,39.2,32.0,75,29.83,10.0,West,10.4,-,N/A,,Mostly Cloudy,260,2013-03-12 06:27:00
2:54 AM,39.9,33.1,77,29.84,10.0,WSW,4.6,-,N/A,,Overcast,250,2013-03-12 06:54:00
3:54 AM,39.0,30.0,70,29.85,10.0,West,15.0,20.7,N/A,,Overcast,260,2013-03-12 07:54:00
4:08 AM,39.2,30.2,70,29.85,10.0,West,11.5,-,N/A,,Overcast,260,2013-03-12 08:08:00
4:54 AM,37.9,30.9,76,29.86,10.0,West,11.5,-,0.00,Rain,Light Rain,270,2013-03-12 08:54:00
5:54 AM,37.0,32.0,82,29.87,10.0,SW,5.8,-,0.00,,Overcast,220,2013-03-12 09:54:00
6:54 AM,37.0,28.9,73,29.90,10.0,West,13.8,-,N/A,,Overcast,270,2013-03-12 10:54:00
7:54 AM,35.1,28.9,78,29.92,10.0,West,13.8,-,N/A,,Overcast,270,2013-03-12 11:54:00
8:54 AM,36.0,28.9,76,29.93,10.0,SW,6.9,-,N/A,,Overcast,230,2013-03-12 12:54:00
9:54 AM,36.0,28.9,76,29.95,10.0,SW,8.1,-,N/A,,Overcast,230,2013-03-12 13:54:00
10:54 AM,36.0,30.0,79,29.96,9.0,SW,9.2,-,N/A,,Overcast,230,2013-03-12 14:54:00
11:54 AM,37.0,30.0,76,29.96,10.0,SW,10.4,-,0.00,,Overcast,230,2013-03-12 15:54:00
12:54 PM,37.0,30.9,79,29.95,8.0,SW,8.1,-,0.00,,Overcast,230,2013-03-12 16:54:00
1:14 PM,39.2,30.2,70,29.94,10.0,SW,13.8,-,0.00,,Overcast,230,2013-03-12 17:14:00
1:54 PM,39.0,28.9,67,29.97,10.0,WSW,13.8,-,0.00,,Overcast,240,2013-03-12 17:54:00
2:54 PM,39.0,28.0,65,29.96,10.0,WSW,12.7,-,N/A,,Overcast,250,2013-03-12 18:54:00
3:54 PM,37.9,28.0,68,29.96,10.0,SW,12.7,-,N/A,,Overcast,230,2013-03-12 19:54:00
4:54 PM,37.9,28.9,70,29.97,10.0,WSW,11.5,-,N/A,,Overcast,250,2013-03-12 20:54:00
5:54 PM,37.9,28.0,68,29.98,10.0,WSW,13.8,19.6,N/A,,Overcast,250,2013-03-12 21:54:00
6:05 PM,37.4,28.4,70,29.96,10.0,WSW,13.8,-,N/A,,Overcast,250,2013-03-12 22:05:00
6:54 PM,37.9,28.0,68,29.99,10.0,WSW,11.5,19.6,N/A,,Overcast,240,2013-03-12 22:54:00
7:54 PM,37.9,28.9,70,30.00,10.0,SW,6.9,-,N/A,,Overcast,230,2013-03-12 23:54:00
8:54 PM,37.0,28.9,73,30.00,10.0,SSW,3.5,-,N/A,,Overcast,200,2013-03-13 00:54:00
9:54 PM,37.0,28.9,73,30.01,10.0,SSW,5.8,-,N/A,,Overcast,210,2013-03-13 01:54:00
10:33 PM,35.6,30.2,81,30.01,1.5,WNW,17.3,25.3,0.01,Snow,Light Snow,300,2013-03-13 02:33:00
10:38 PM,33.8,30.2,87,30.01,0.8,West,12.7,25.3,0.01,Snow,Light Snow,270,2013-03-13 02:38:00
10:47 PM,33.8,30.2,87,29.99,2.0,SW,5.8,17.3,0.01,Snow,Light Snow,230,2013-03-13 02:47:00
10:49 PM,33.8,30.2,87,29.99,3.0,SW,4.6,-,0.01,Snow,Light Snow,230,2013-03-13 02:49:00
10:54 PM,34.0,30.9,89,30.02,7.0,SW,4.6,-,0.01,Snow,Light Snow,230,2013-03-13 02:54:00
11:05 PM,33.8,30.2,87,29.99,10.0,SW,3.5,-,0.00,,Overcast,230,2013-03-13 03:05:00
11:54 PM,34.0,30.9,89,30.01,9.0,SSW,4.6,-,0.00,,Overcast,210,2013-03-13 03:54:00